Weather reports worldwide

Advertisment
Aonach Mor, United Kingdom (3041): temperature & dewpoint: 15.02.2017 14:00:00 - 21.02.2017 14:00:00 (GMT)Aonach Mor, United Kingdom (3041): wind speed & gusts: 15.02.2017 14:00:00 - 21.02.2017 14:00:00 (GMT)Aonach Mor, United Kingdom (3041): wind direction: 15.02.2017 14:00:00 - 21.02.2017 14:00:00 (GMT)
Date & Time tt [°C] td [°C] ff [km/h] ff [kn] fx [km/h] fx [kn] dd
21.02.2017 14:00:00 - - - - - - -
21.02.2017 13:00:00 3,9 3,8 89 48 126 68 SSW
21.02.2017 12:00:00 1,4 1,3 85 46 124 67 SSW
21.02.2017 11:00:00 0,4 0,3 87 47 122 66 SW
21.02.2017 10:00:00 1,0 -0,2 80 43 122 66 SW
21.02.2017 09:00:00 -0,4 -0,6 59 32 102 55 SSW
21.02.2017 08:00:00 -1,9 -2,0 59 32 109 59 SW
21.02.2017 07:00:00 -2,9 -3,1 50 27 89 48 SW
21.02.2017 06:00:00 -1,8 -1,9 55 30 81 44 WSW
21.02.2017 05:00:00 -2,4 -2,5 65 35 76 41 WSW
21.02.2017 04:00:00 -2,1 -2,2 48 26 65 35 WSW
21.02.2017 03:00:00 -1,8 -1,8 54 29 74 40 WSW
21.02.2017 02:00:00 -1,9 -1,9 52 28 70 38 WSW
21.02.2017 01:00:00 -1,8 -1,8 29 16 65 35 W
21.02.2017 00:00:00 -2,2 -2,2 46 25 67 36 WSW
20.02.2017 23:00:00 -1,8 -1,8 37 20 74 40 WSW
20.02.2017 22:00:00 -2,0 -2,0 48 26 68 37 WSW
20.02.2017 21:00:00 -1,7 -1,7 41 22 67 36 WSW
20.02.2017 20:00:00 -1,6 -1,6 52 28 70 38 WSW
20.02.2017 19:00:00 -1,6 -1,6 39 21 91 49 WSW
20.02.2017 18:00:00 -1,2 -1,2 46 25 78 42 WSW
20.02.2017 17:00:00 -0,7 -0,7 46 25 76 41 WSW
20.02.2017 16:00:00 -0,4 -0,4 57 31 96 52 WSW
20.02.2017 15:00:00 0,3 0,3 61 33 87 47 WSW
20.02.2017 14:00:00 0,2 0,2 54 29 85 46 WSW
20.02.2017 13:00:00 1,0 1,0 44 24 83 45 WSW
20.02.2017 12:00:00 0,9 0,9 54 29 93 50 WSW
20.02.2017 11:00:00 2,5 2,5 42 23 70 38 WSW
20.02.2017 10:00:00 3,1 3,1 42 23 93 50 WSW
20.02.2017 09:00:00 4,0 4,0 65 35 96 52 WSW
20.02.2017 08:00:00 4,3 4,3 72 39 113 61 WSW
20.02.2017 07:00:00 4,5 4,5 67 36 111 60 WSW
20.02.2017 06:00:00 5,5 5,5 74 40 119 64 WSW
20.02.2017 05:00:00 5,8 5,8 80 43 111 60 WSW
20.02.2017 04:00:00 5,5 5,5 93 50 119 64 WSW
20.02.2017 03:00:00 4,6 4,6 67 36 89 48 WSW
20.02.2017 02:00:00 4,1 4,1 61 33 85 46 WSW
20.02.2017 01:00:00 4,1 4,1 57 31 80 43 WSW
20.02.2017 00:00:00 3,8 3,8 57 31 76 41 WSW
19.02.2017 23:00:00 4,5 4,5 61 33 76 41 WSW
19.02.2017 22:00:00 5,1 5,1 50 27 65 35 WSW
19.02.2017 21:00:00 5,2 5,2 46 25 70 38 WSW
19.02.2017 20:00:00 5,0 5,0 50 27 76 41 WSW
19.02.2017 19:00:00 5,4 5,4 61 33 80 43 WSW
19.02.2017 18:00:00 5,5 5,5 59 32 76 41 WSW
19.02.2017 17:00:00 5,6 5,6 57 31 81 44 WSW
19.02.2017 16:00:00 5,6 5,6 46 25 89 48 SW
19.02.2017 15:00:00 4,5 4,5 41 22 78 42 SW
19.02.2017 14:00:00 4,9 3,7 37 20 85 46 WSW
19.02.2017 13:00:00 3,9 3,5 39 21 61 33 SW
19.02.2017 12:00:00 3,5 3,5 39 21 59 32 WSW
19.02.2017 11:00:00 2,1 2,1 37 20 61 33 WSW
19.02.2017 10:00:00 1,8 1,8 39 21 54 29 WSW
19.02.2017 09:00:00 1,8 1,8 42 23 54 29 WSW
19.02.2017 08:00:00 1,5 1,5 41 22 57 31 WSW
19.02.2017 07:00:00 1,0 1,0 41 22 61 33 WSW
19.02.2017 06:00:00 0,7 0,7 44 24 59 32 WSW
19.02.2017 05:00:00 0,6 0,6 37 20 48 26 WSW
19.02.2017 04:00:00 0,7 0,7 26 14 50 27 W
19.02.2017 03:00:00 0,9 0,9 39 21 63 34 WSW
19.02.2017 02:00:00 1,1 1,1 39 21 68 37 WSW
19.02.2017 01:00:00 1,4 1,4 46 25 72 39 WSW
19.02.2017 00:00:00 1,4 1,4 59 32 91 49 WSW
18.02.2017 23:00:00 1,2 1,2 74 40 104 56 WSW
18.02.2017 22:00:00 0,5 0,5 57 31 89 48 WSW
18.02.2017 21:00:00 0,5 0,5 55 30 111 60 WSW
18.02.2017 20:00:00 0,4 0,4 72 39 107 58 SW
18.02.2017 19:00:00 0,2 0,2 59 32 119 64 SW
18.02.2017 18:00:00 0,7 0,7 50 27 102 55 SW
18.02.2017 17:00:00 1,4 1,4 61 33 100 54 SW
18.02.2017 16:00:00 1,4 1,4 55 30 98 53 SW
18.02.2017 15:00:00 1,5 1,5 59 32 102 55 SW
18.02.2017 14:00:00 1,4 1,4 61 33 107 58 SSW
18.02.2017 13:00:00 1,9 1,9 55 30 81 44 SW
18.02.2017 12:00:00 2,1 2,1 48 26 85 46 SW
18.02.2017 11:00:00 2,2 2,2 50 27 85 46 SW
18.02.2017 10:00:00 2,5 2,5 55 30 96 52 SW
18.02.2017 09:00:00 3,1 3,1 46 25 89 48 WSW
18.02.2017 08:00:00 3,2 3,2 54 29 115 62 SW
18.02.2017 07:00:00 3,2 3,2 65 35 104 56 SW
18.02.2017 06:00:00 3,0 3,0 54 29 78 42 SSW
18.02.2017 05:00:00 3,0 3,0 46 25 83 45 SSW
18.02.2017 04:00:00 3,2 3,2 46 25 74 40 SSW
18.02.2017 03:00:00 3,4 3,4 52 28 65 35 SSW
18.02.2017 02:00:00 3,0 3,0 44 24 59 32 SSW
18.02.2017 01:00:00 3,0 3,0 42 23 63 34 SSW
18.02.2017 00:00:00 3,1 3,1 42 23 68 37 SSW
17.02.2017 23:00:00 3,0 3,0 46 25 61 33 SSW
17.02.2017 22:00:00 2,8 2,8 44 24 61 33 SSW
17.02.2017 21:00:00 3,0 3,0 50 27 63 34 SSW
17.02.2017 20:00:00 2,6 2,6 54 29 70 38 SSW
17.02.2017 19:00:00 2,2 2,2 59 32 70 38 SSW
17.02.2017 18:00:00 2,6 2,6 50 27 65 35 SSW
17.02.2017 17:00:00 2,0 2,0 44 24 63 34 SSW
17.02.2017 16:00:00 2,4 0,9 34 18 63 34 SSW
17.02.2017 15:00:00 2,8 1,8 39 21 63 34 SSW
17.02.2017 14:00:00 3,2 2,3 50 27 63 34 SSW
17.02.2017 13:00:00 2,2 2,2 44 24 57 31 SSW
17.02.2017 12:00:00 2,2 2,2 42 23 55 30 SSW
17.02.2017 11:00:00 1,7 1,7 31 17 - - SSW
17.02.2017 10:00:00 2,1 2,1 26 14 - - S
17.02.2017 09:00:00 2,0 2,0 26 14 - - SSW
17.02.2017 08:00:00 1,5 1,5 34 18 - - SSW
17.02.2017 07:00:00 1,3 1,3 28 15 - - SSW
17.02.2017 06:00:00 1,6 1,6 21 11 - - S
17.02.2017 05:00:00 0,7 0,7 18 10 - - SSW
17.02.2017 04:00:00 1,3 1,3 11 6 - - SSW
17.02.2017 03:00:00 1,5 1,5 11 6 - - SSW
17.02.2017 02:00:00 -0,2 -0,2 8 4 - - SW
17.02.2017 01:00:00 0,1 0,1 11 6 - - WSW
17.02.2017 00:00:00 0,1 0,1 11 6 - - WSW
16.02.2017 23:00:00 0,3 0,3 8 4 - - WNW
16.02.2017 22:00:00 0,1 0,1 13 7 - - WNW
16.02.2017 21:00:00 0,4 0,4 11 6 - - WNW
16.02.2017 20:00:00 0,4 0,4 15 8 - - NW
16.02.2017 19:00:00 0,5 0,5 13 7 - - W
16.02.2017 18:00:00 0,1 0,1 18 10 - - WNW
16.02.2017 17:00:00 0,7 0,7 18 10 - - W
16.02.2017 16:00:00 0,9 0,9 21 11 - - W
16.02.2017 15:00:00 0,7 0,7 22 12 - - W
16.02.2017 14:00:00 1,1 1,1 24 13 65 35 W
16.02.2017 13:00:00 1,4 1,4 52 28 76 41 WSW
16.02.2017 12:00:00 1,2 1,2 54 29 78 42 WSW
16.02.2017 11:00:00 1,0 0,9 61 33 81 44 WSW
16.02.2017 10:00:00 0,5 0,5 59 32 - - WSW
16.02.2017 09:00:00 0,4 0,3 65 35 102 55 SW
16.02.2017 08:00:00 -0,1 -0,2 61 33 115 62 SW
16.02.2017 07:00:00 0,0 -0,1 78 42 104 56 SW
16.02.2017 06:00:00 0,3 0,2 70 38 113 61 SW
16.02.2017 05:00:00 0,6 0,5 63 34 102 55 SW
16.02.2017 04:00:00 1,4 1,3 68 37 93 50 SW
16.02.2017 03:00:00 1,0 0,9 50 27 89 48 SSW
16.02.2017 02:00:00 1,5 1,4 46 25 80 43 SSW
16.02.2017 01:00:00 0,8 0,7 41 22 93 50 SW
16.02.2017 00:00:00 1,4 1,3 61 33 104 56 SW
15.02.2017 23:00:00 1,7 1,6 61 33 91 49 SW
15.02.2017 22:00:00 1,4 1,3 61 33 93 50 SSW
15.02.2017 21:00:00 1,1 1,0 48 26 80 43 SSW
15.02.2017 20:00:00 0,8 0,7 48 26 72 39 SSW
15.02.2017 19:00:00 0,8 0,7 39 21 67 36 S
15.02.2017 18:00:00 0,7 0,6 48 26 83 45 S
15.02.2017 17:00:00 0,8 0,7 41 22 80 43 S
15.02.2017 16:00:00 0,7 0,6 50 27 76 41 S
15.02.2017 15:00:00 1,0 0,9 50 27 80 43 S
15.02.2017 14:00:00 1,3 1,2 48 26 70 38 SSW

tt = temperature
td = dewpoint
ff = wind speed
fx = gusts
dd = wind direction

Next stations